createdAt,value
2017-11-19T00:00:15.667Z,2.31
2017-11-19T00:01:25.616Z,2.3
2017-11-19T00:02:35.948Z,2.33
2017-11-19T00:03:46.257Z,2.46
2017-11-19T00:04:56.468Z,2.39
2017-11-19T00:06:06.694Z,2.46
2017-11-19T00:07:16.921Z,2.46
2017-11-19T00:08:27.143Z,2.52
2017-11-19T00:09:37.134Z,2.52
2017-11-19T00:10:47.375Z,2.64
2017-11-19T00:11:57.278Z,2.64
2017-11-19T00:13:07.560Z,2.66
2017-11-19T00:14:17.867Z,2.67
2017-11-19T00:15:27.953Z,2.67
2017-11-19T00:16:38.187Z,2.66
2017-11-19T00:17:48.456Z,2.63
2017-11-19T00:18:58.475Z,2.69
2017-11-19T00:20:08.901Z,2.66
2017-11-19T00:21:18.635Z,2.69
2017-11-19T00:22:28.849Z,2.74
2017-11-19T00:23:38.758Z,2.71
2017-11-19T00:24:48.746Z,2.7
2017-11-19T00:25:59.115Z,2.7
2017-11-19T00:27:09.240Z,2.69
2017-11-19T00:28:19.203Z,2.71
2017-11-19T00:29:29.487Z,2.74
2017-11-19T00:30:39.426Z,2.73
2017-11-19T00:31:49.887Z,2.77
2017-11-19T00:32:59.872Z,2.73
2017-11-19T00:34:09.908Z,2.69
2017-11-19T00:35:19.577Z,2.77
2017-11-19T00:36:29.994Z,2.81
2017-11-19T00:37:40.349Z,2.77
2017-11-19T00:38:50.622Z,2.77
2017-11-19T00:40:00.706Z,2.74
2017-11-19T00:41:11.026Z,2.85
2017-11-19T00:42:21.257Z,2.85
2017-11-19T00:43:31.499Z,2.77
2017-11-19T00:44:41.720Z,2.73
2017-11-19T00:45:51.929Z,2.73
2017-11-19T00:47:01.533Z,2.78
2017-11-19T00:48:11.518Z,2.84
2017-11-19T00:49:21.481Z,2.81
2017-11-19T00:50:31.761Z,2.82
2017-11-19T00:51:42.301Z,2.89
2017-11-19T00:52:52.735Z,2.88
2017-11-19T00:54:02.964Z,2.85
2017-11-19T00:55:13.192Z,2.85
2017-11-19T00:56:23.155Z,2.85
2017-11-19T00:57:33.462Z,2.82
2017-11-19T00:58:43.191Z,2.85
2017-11-19T00:59:53.162Z,2.82
2017-11-19T01:01:03.106Z,2.87
2017-11-19T01:02:13.369Z,2.81
2017-11-19T01:03:23.310Z,2.82
2017-11-19T01:04:33.279Z,2.81
2017-11-19T01:05:43.335Z,2.82
2017-11-19T01:06:53.583Z,2.73
2017-11-19T01:08:03.779Z,2.71
2017-11-19T01:09:14.030Z,2.7
2017-11-19T01:10:24.079Z,2.74
2017-11-19T01:11:34.553Z,2.74
2017-11-19T01:12:44.897Z,2.69
2017-11-19T01:13:54.915Z,2.71
2017-11-19T01:15:04.786Z,2.71
2017-11-19T01:16:14.780Z,2.73
2017-11-19T01:17:24.988Z,2.67
2017-11-19T01:18:35.199Z,2.66
2017-11-19T01:19:45.456Z,2.67
2017-11-19T01:20:55.413Z,2.6
2017-11-19T01:22:05.753Z,2.7
2017-11-19T01:23:16.163Z,2.56
2017-11-19T01:24:26.469Z,2.56
2017-11-19T01:25:36.332Z,2.6
2017-11-19T01:26:46.228Z,2.55
2017-11-19T01:27:56.504Z,2.6
2017-11-19T01:29:06.192Z,2.48
2017-11-19T01:30:16.447Z,2.49
2017-11-19T01:31:26.155Z,2.46
2017-11-19T01:32:36.376Z,2.48
2017-11-19T01:33:46.687Z,2.45
2017-11-19T01:34:56.941Z,2.48
2017-11-19T01:36:06.569Z,2.51
2017-11-19T01:37:16.776Z,2.48
2017-11-19T01:38:26.692Z,2.44
2017-11-19T01:39:36.942Z,2.41
2017-11-19T01:40:47.145Z,2.48
2017-11-19T01:41:57.089Z,2.45
2017-11-19T01:43:07.339Z,2.39
2017-11-19T01:44:17.629Z,2.45
2017-11-19T01:45:27.583Z,2.45
2017-11-19T01:46:37.832Z,2.52
2017-11-19T01:47:47.771Z,2.44
2017-11-19T01:48:58.009Z,2.48
2017-11-19T01:50:08.232Z,2.45
2017-11-19T01:51:18.477Z,2.39
2017-11-19T01:52:28.778Z,2.46
2017-11-19T01:53:38.971Z,2.45
2017-11-19T01:54:49.184Z,2.48
2017-11-19T01:55:59.452Z,2.34
2017-11-19T01:57:09.716Z,2.33
2017-11-19T01:58:19.810Z,2.37
2017-11-19T01:59:30.271Z,2.31
2017-11-19T02:00:40.498Z,2.41
2017-11-19T02:01:50.818Z,2.36
2017-11-19T02:03:01.033Z,2.28
2017-11-19T02:04:10.986Z,2.23
2017-11-19T02:05:20.726Z,2.31
2017-11-19T02:06:30.947Z,2.28
2017-11-19T02:07:40.954Z,2.3
2017-11-19T02:08:50.887Z,2.24
2017-11-19T02:10:01.091Z,2.24
2017-11-19T02:11:11.315Z,2.26
2017-11-19T02:12:21.523Z,2.24
2017-11-19T02:13:31.774Z,2.26
2017-11-19T02:14:42.056Z,2.31
2017-11-19T02:15:52.268Z,2.26
2017-11-19T02:17:02.495Z,2.27
2017-11-19T02:18:11.921Z,2.34
2017-11-19T02:19:22.256Z,2.31
2017-11-19T02:20:32.022Z,2.31
2017-11-19T02:21:42.227Z,2.31
2017-11-19T02:22:52.169Z,2.28
2017-11-19T02:24:02.153Z,2.37
2017-11-19T02:25:44.248Z,2.37
2017-11-19T02:26:54.458Z,2.27
2017-11-19T02:28:04.652Z,2.28
2017-11-19T02:29:14.520Z,2.36
2017-11-19T02:30:24.445Z,2.24
2017-11-19T02:31:34.692Z,2.27
2017-11-19T02:32:44.688Z,2.28
2017-11-19T02:33:54.732Z,2.3
2017-11-19T02:35:04.772Z,2.26
2017-11-19T02:36:15.006Z,2.28
2017-11-19T02:37:25.352Z,2.26
2017-11-19T02:38:35.612Z,2.28
2017-11-19T02:39:46.167Z,2.21
2017-11-19T02:40:56.490Z,2.16
2017-11-19T02:42:06.718Z,2.08
2017-11-19T02:43:16.972Z,2.09
2017-11-19T02:44:27.237Z,2.05
2017-11-19T02:45:37.519Z,2.06
2017-11-19T02:46:47.738Z,2.05
2017-11-19T02:47:57.945Z,1.98
2017-11-19T02:49:07.907Z,2.05
2017-11-19T02:50:17.814Z,2.01
2017-11-19T02:51:28.033Z,2.01
2017-11-19T02:52:38.282Z,1.91
2017-11-19T02:53:48.516Z,1.97
2017-11-19T02:54:58.742Z,1.95
2017-11-19T02:56:08.981Z,1.94
2017-11-19T02:57:19.227Z,1.98
2017-11-19T02:58:29.435Z,1.95
2017-11-19T02:59:39.661Z,1.92
2017-11-19T03:00:50.118Z,1.85
2017-11-19T03:02:00.105Z,1.85
2017-11-19T03:03:10.325Z,1.88
2017-11-19T03:04:20.534Z,1.85
2017-11-19T03:05:31.021Z,1.87
2017-11-19T03:06:41.241Z,1.87
2017-11-19T03:07:51.115Z,1.85
2017-11-19T03:09:01.394Z,1.88
2017-11-19T03:10:11.072Z,1.82
2017-11-19T03:11:21.310Z,1.8
2017-11-19T03:12:31.268Z,1.77
2017-11-19T03:13:41.477Z,1.73
2017-11-19T03:14:51.682Z,1.72
2017-11-19T03:16:01.636Z,1.76
2017-11-19T03:17:11.543Z,1.74
2017-11-19T03:18:22.640Z,1.67
2017-11-19T03:19:32.850Z,1.55
2017-11-19T03:20:43.157Z,1.64
2017-11-19T03:21:53.403Z,1.58
2017-11-19T03:23:03.611Z,1.58
2017-11-19T03:24:13.835Z,1.57
2017-11-19T03:25:23.545Z,1.51
2017-11-19T03:26:33.515Z,1.54
2017-11-19T03:27:43.857Z,1.58
2017-11-19T03:28:54.093Z,1.55
2017-11-19T03:30:04.310Z,1.58
2017-11-19T03:31:14.291Z,1.54
2017-11-19T03:32:24.538Z,1.54
2017-11-19T03:33:34.741Z,1.57
2017-11-19T03:34:44.955Z,1.48
2017-11-19T03:35:55.204Z,1.57
2017-11-19T03:37:05.400Z,1.58
2017-11-19T03:38:15.622Z,1.57
2017-11-19T03:39:25.853Z,1.54
2017-11-19T03:40:36.119Z,1.51
2017-11-19T03:41:46.113Z,1.62
2017-11-19T03:42:56.340Z,1.57
2017-11-19T03:44:06.189Z,1.54
2017-11-19T03:45:16.387Z,1.64
2017-11-19T03:46:26.662Z,1.54
2017-11-19T03:47:36.698Z,1.6
2017-11-19T03:48:46.958Z,1.58
2017-11-19T03:49:57.263Z,1.5
2017-11-19T03:51:07.513Z,1.54
2017-11-19T03:52:17.785Z,1.57
2017-11-19T03:53:28.285Z,1.53
2017-11-19T03:54:38.514Z,1.54
2017-11-19T03:55:48.773Z,1.46
2017-11-19T03:56:58.479Z,1.5
2017-11-19T03:58:08.736Z,1.57
2017-11-19T03:59:18.584Z,1.54
2017-11-19T04:00:28.789Z,1.53
2017-11-19T04:01:39.049Z,1.48
2017-11-19T04:02:48.984Z,1.4
2017-11-19T04:03:59.416Z,1.5
2017-11-19T04:05:09.638Z,1.46
2017-11-19T04:06:19.389Z,1.48
2017-11-19T04:07:29.444Z,1.47
2017-11-19T04:08:39.353Z,1.55
2017-11-19T04:09:49.326Z,1.46
2017-11-19T04:10:59.294Z,1.38
2017-11-19T04:12:09.157Z,1.32
2017-11-19T04:13:19.439Z,1.33
2017-11-19T04:14:29.707Z,1.3
2017-11-19T04:15:39.949Z,1.35
2017-11-19T04:16:50.226Z,1.35
2017-11-19T04:18:00.538Z,1.3
2017-11-19T04:19:10.834Z,1.4
2017-11-19T04:20:20.453Z,1.4
2017-11-19T04:21:30.704Z,1.46
2017-11-19T04:22:40.879Z,1.48
2017-11-19T04:23:51.080Z,1.54
2017-11-19T04:25:01.728Z,1.43
2017-11-19T04:26:12.028Z,1.5
2017-11-19T04:27:21.976Z,1.58
2017-11-19T04:28:32.201Z,1.54
2017-11-19T04:29:42.404Z,1.51
2017-11-19T04:30:52.612Z,1.62
2017-11-19T04:32:02.820Z,1.6
2017-11-19T04:33:12.831Z,1.69
2017-11-19T04:34:23.067Z,1.69
2017-11-19T04:35:33.307Z,1.8
2017-11-19T04:36:43.509Z,1.69
2017-11-19T04:37:53.588Z,1.79
2017-11-19T04:39:03.446Z,1.88
2017-11-19T04:40:13.831Z,1.97
2017-11-19T04:41:24.041Z,1.95
2017-11-19T04:42:34.339Z,2
2017-11-19T04:43:44.546Z,1.97
2017-11-19T04:44:54.386Z,2
2017-11-19T04:46:04.595Z,2
2017-11-19T04:47:14.809Z,2.05
2017-11-19T04:48:24.744Z,2.08
2017-11-19T04:49:34.999Z,2.09
2017-11-19T04:50:45.219Z,2.06
2017-11-19T04:51:55.428Z,2.12
2017-11-19T04:53:05.695Z,2.1
2017-11-19T04:54:15.965Z,2.13
2017-11-19T04:55:25.647Z,2.18
2017-11-19T04:56:36.025Z,2.18
2017-11-19T04:57:46.255Z,2.18
2017-11-19T04:58:56.487Z,2.18
2017-11-19T05:00:06.574Z,2.16
2017-11-19T05:01:16.418Z,2.09
2017-11-19T05:02:26.454Z,2.21
2017-11-19T05:03:36.469Z,2.08
2017-11-19T05:04:46.950Z,2.23
2017-11-19T05:05:57.119Z,2.13
2017-11-19T05:07:07.394Z,2.24
2017-11-19T05:08:17.080Z,2.13
2017-11-19T05:09:27.469Z,2.15
2017-11-19T05:10:37.718Z,2.18
2017-11-19T05:11:48.153Z,2.23
2017-11-19T05:12:58.489Z,2.27
2017-11-19T05:14:08.718Z,2.26
2017-11-19T05:15:18.968Z,2.28
2017-11-19T05:16:28.901Z,2.31
2017-11-19T05:17:39.144Z,2.33
2017-11-19T05:18:49.344Z,2.34
2017-11-19T05:19:59.605Z,2.24
2017-11-19T05:21:09.658Z,2.33
2017-11-19T05:22:19.923Z,2.31
2017-11-19T05:23:30.142Z,2.34
2017-11-19T05:24:40.182Z,2.41
2017-11-19T05:25:50.446Z,2.42
2017-11-19T05:27:00.016Z,2.45
2017-11-19T05:28:10.311Z,2.41
2017-11-19T05:29:20.638Z,2.44
2017-11-19T05:30:30.896Z,2.45
2017-11-19T05:31:41.116Z,2.49
2017-11-19T05:32:51.213Z,2.49
2017-11-19T05:34:01.448Z,2.52
2017-11-19T05:35:11.938Z,2.51
2017-11-19T05:36:22.178Z,2.56
2017-11-19T05:37:32.383Z,2.51
2017-11-19T05:38:42.590Z,2.56
2017-11-19T05:39:52.839Z,2.63
2017-11-19T05:41:03.096Z,2.66
2017-11-19T05:42:13.145Z,2.69
2017-11-19T05:43:23.332Z,2.7
2017-11-19T05:44:33.173Z,2.78
2017-11-19T05:45:43.445Z,2.73
2017-11-19T05:46:53.692Z,2.73
2017-11-19T05:48:03.909Z,2.81
2017-11-19T05:49:13.907Z,2.85
2017-11-19T05:50:24.194Z,2.81
2017-11-19T05:51:34.446Z,2.81
2017-11-19T05:52:44.658Z,2.88
2017-11-19T05:53:54.907Z,2.89
2017-11-19T05:55:05.117Z,2.88
2017-11-19T05:56:15.069Z,2.88
2017-11-19T05:57:25.288Z,2.88
2017-11-19T05:58:35.543Z,2.84
2017-11-19T05:59:45.819Z,2.92
2017-11-19T06:00:56.178Z,2.82
2017-11-19T06:02:06.112Z,2.85
2017-11-19T06:03:16.347Z,2.82
2017-11-19T06:04:26.585Z,2.82
2017-11-19T06:05:36.591Z,2.85
2017-11-19T06:06:46.829Z,2.92
2017-11-19T06:07:57.028Z,2.87
2017-11-19T06:09:07.260Z,2.85
2017-11-19T06:10:17.097Z,2.88
2017-11-19T06:11:27.047Z,2.81
2017-11-19T06:12:37.041Z,2.79
2017-11-19T06:13:46.832Z,2.78
2017-11-19T06:14:56.818Z,2.74
2017-11-19T06:16:07.114Z,2.78
2017-11-19T06:17:17.395Z,2.78
2017-11-19T06:18:27.415Z,2.79
2017-11-19T06:20:08.865Z,2.74
2017-11-19T06:21:19.138Z,2.71
2017-11-19T06:22:29.225Z,2.74
2017-11-19T06:23:39.483Z,2.69
2017-11-19T06:24:49.797Z,2.74
2017-11-19T06:25:59.392Z,2.73
2017-11-19T06:27:09.444Z,2.73
2017-11-19T06:28:19.417Z,2.74
2017-11-19T06:29:29.674Z,2.7
2017-11-19T06:30:39.614Z,2.69
2017-11-19T06:31:49.827Z,2.64
2017-11-19T06:33:00.040Z,2.62
2017-11-19T06:34:09.992Z,2.56
2017-11-19T06:35:20.342Z,2.66
2017-11-19T06:36:30.661Z,2.56
2017-11-19T06:37:40.870Z,2.6
2017-11-19T06:38:51.100Z,2.52
2017-11-19T06:40:01.059Z,2.45
2017-11-19T06:41:11.286Z,2.46
2017-11-19T06:42:20.700Z,2.46
2017-11-19T06:43:30.714Z,2.51
2017-11-19T06:44:40.773Z,2.48
2017-11-19T06:45:50.977Z,2.53
2017-11-19T06:47:01.000Z,2.49
2017-11-19T06:48:11.229Z,2.42
2017-11-19T06:49:21.460Z,2.42
2017-11-19T06:50:31.899Z,2.51
2017-11-19T06:51:41.818Z,2.51
2017-11-19T06:52:51.759Z,2.44
2017-11-19T06:54:02.096Z,2.44
2017-11-19T06:55:12.366Z,2.51
2017-11-19T06:56:22.320Z,2.46
2017-11-19T06:57:32.677Z,2.49
2017-11-19T06:58:42.807Z,2.48
2017-11-19T06:59:53.113Z,2.52
2017-11-19T07:01:03.061Z,2.51
2017-11-19T07:02:13.302Z,2.53
2017-11-19T07:03:23.533Z,2.42
2017-11-19T07:04:33.767Z,2.48
2017-11-19T07:05:43.742Z,2.48
2017-11-19T07:06:53.974Z,2.39
2017-11-19T07:08:04.320Z,2.44
2017-11-19T07:09:14.206Z,2.42
2017-11-19T07:10:24.169Z,2.45
2017-11-19T07:11:34.215Z,2.46
2017-11-19T07:12:44.569Z,2.44
2017-11-19T07:13:54.790Z,2.48
2017-11-19T07:15:05.023Z,2.44
2017-11-19T07:16:15.250Z,2.44
2017-11-19T07:17:25.533Z,2.51
2017-11-19T07:18:35.777Z,2.51
2017-11-19T07:19:45.756Z,2.48
2017-11-19T07:20:56.012Z,2.62
2017-11-19T07:22:06.271Z,2.53
2017-11-19T07:23:16.576Z,2.64
2017-11-19T07:24:26.062Z,2.55
2017-11-19T07:25:36.285Z,2.6
2017-11-19T07:26:46.529Z,2.66
2017-11-19T07:27:55.967Z,2.55
2017-11-19T07:29:06.239Z,2.69
2017-11-19T07:30:16.554Z,2.74
2017-11-19T07:31:26.559Z,2.74
2017-11-19T07:32:36.568Z,2.74
2017-11-19T07:33:46.797Z,2.79
2017-11-19T07:34:56.749Z,2.78
2017-11-19T07:36:07.076Z,2.85
2017-11-19T07:37:17.483Z,2.88
2017-11-19T07:38:27.432Z,2.91
2017-11-19T07:39:37.673Z,2.92
2017-11-19T07:40:47.655Z,2.96
2017-11-19T07:41:57.766Z,2.88
2017-11-19T07:43:08.205Z,3.02
2017-11-19T07:44:18.465Z,3.1
2017-11-19T07:45:28.764Z,3.13
2017-11-19T07:46:38.992Z,3.07
2017-11-19T07:47:49.278Z,3.19
2017-11-19T07:48:59.126Z,3.25
2017-11-19T07:50:09.111Z,3.4
2017-11-19T07:51:19.076Z,3.39
2017-11-19T07:52:29.291Z,3.44
2017-11-19T07:53:39.525Z,3.58
2017-11-19T07:54:49.790Z,3.61
2017-11-19T07:56:00.005Z,3.75
2017-11-19T07:57:10.260Z,3.69
2017-11-19T07:58:20.292Z,3.72
2017-11-19T07:59:30.529Z,3.79
2017-11-19T08:00:40.469Z,3.94
2017-11-19T08:01:50.101Z,3.9
2017-11-19T08:03:00.332Z,4
2017-11-19T08:04:10.586Z,4.16
2017-11-19T08:05:20.796Z,4.22
2017-11-19T08:06:30.893Z,4.43
2017-11-19T08:07:40.500Z,4.93
2017-11-19T08:08:50.742Z,5.49
2017-11-19T08:10:00.736Z,5.86
2017-11-19T08:11:10.786Z,6.27
2017-11-19T08:12:21.148Z,6.66
2017-11-19T08:13:31.378Z,7.15
2017-11-19T08:14:41.606Z,7.43
2017-11-19T08:15:51.837Z,7.17
2017-11-19T08:17:02.056Z,7.02
2017-11-19T08:18:12.323Z,6.81
2017-11-19T08:19:22.276Z,6.59
2017-11-19T08:20:32.499Z,6.48
2017-11-19T08:21:42.436Z,6.26
2017-11-19T08:22:52.424Z,6.14
2017-11-19T08:24:02.687Z,6.05
2017-11-19T08:25:13.013Z,5.88
2017-11-19T08:26:23.245Z,5.62
2017-11-19T08:27:33.118Z,5.47
2017-11-19T08:28:43.073Z,5.29
2017-11-19T08:29:53.401Z,5.18
2017-11-19T08:31:03.625Z,5.08
2017-11-19T08:32:13.861Z,5
2017-11-19T08:33:23.720Z,5.06
2017-11-19T08:34:33.934Z,5.04
2017-11-19T08:35:44.207Z,5.04
2017-11-19T08:36:54.258Z,5.21
2017-11-19T08:38:04.232Z,5.18
2017-11-19T08:39:14.718Z,5.59
2017-11-19T08:40:24.704Z,5.72
2017-11-19T08:41:34.445Z,6.09
2017-11-19T08:42:44.703Z,6.41
2017-11-19T08:43:54.723Z,6.82
2017-11-19T08:45:05.568Z,7.08
2017-11-19T08:46:15.526Z,7.28
2017-11-19T08:47:25.746Z,7.62
2017-11-19T08:48:35.948Z,7.76
2017-11-19T08:49:46.181Z,7.49
2017-11-19T08:50:56.036Z,7.1
2017-11-19T08:52:06.268Z,6.99
2017-11-19T08:53:16.497Z,6.78
2017-11-19T08:54:26.817Z,6.53
2017-11-19T08:55:36.775Z,6.36
2017-11-19T08:56:46.361Z,6.17
2017-11-19T08:57:56.439Z,6.01
2017-11-19T08:59:06.655Z,5.8
2017-11-19T09:00:16.976Z,5.88
2017-11-19T09:01:27.269Z,5.84
2017-11-19T09:02:37.565Z,5.75
2017-11-19T09:03:47.801Z,5.51
2017-11-19T09:04:58.271Z,5.36
2017-11-19T09:06:08.515Z,5.24
2017-11-19T09:07:18.457Z,5.29
2017-11-19T09:08:28.382Z,5.16
2017-11-19T09:09:38.690Z,5.13
2017-11-19T09:10:48.551Z,5.07
2017-11-19T09:11:58.544Z,5.07
2017-11-19T09:13:08.790Z,5.04
2017-11-19T09:14:19.022Z,4.98
2017-11-19T09:15:29.073Z,4.95
2017-11-19T09:16:39.307Z,4.93
2017-11-19T09:17:49.532Z,5.03
2017-11-19T09:18:59.794Z,5.08
2017-11-19T09:20:10.030Z,5
2017-11-19T09:21:19.741Z,5.07
2017-11-19T09:22:29.699Z,5.03
2017-11-19T09:23:39.937Z,5.04
2017-11-19T09:24:49.852Z,5
2017-11-19T09:25:59.422Z,5.03
2017-11-19T09:27:09.679Z,4.95
2017-11-19T09:28:19.657Z,4.95
2017-11-19T09:29:29.656Z,5.16
2017-11-19T09:30:40.547Z,5.28
2017-11-19T09:31:50.267Z,5.46
2017-11-19T09:33:00.540Z,5.43
2017-11-19T09:34:10.789Z,5.56
2017-11-19T09:35:21.017Z,5.72
2017-11-19T09:36:31.270Z,5.88
2017-11-19T09:37:41.240Z,5.8
2017-11-19T09:38:50.841Z,5.79
2017-11-19T09:40:01.044Z,5.68
2017-11-19T09:41:11.054Z,5.59
2017-11-19T09:42:21.304Z,5.47
2017-11-19T09:43:31.596Z,5.44
2017-11-19T09:44:41.876Z,5.24
2017-11-19T09:45:51.836Z,5.24
2017-11-19T09:47:01.797Z,5.21
2017-11-19T09:48:12.053Z,5.16
2017-11-19T09:49:22.020Z,5.14
2017-11-19T09:50:32.305Z,5.03
2017-11-19T09:51:42.615Z,5.08
2017-11-19T09:52:52.872Z,4.96
2017-11-19T09:54:02.572Z,4.96
2017-11-19T09:55:12.822Z,4.95
2017-11-19T09:56:22.783Z,4.95
2017-11-19T09:57:33.221Z,4.93
2017-11-19T09:58:42.923Z,4.86
2017-11-19T09:59:53.180Z,4.88
2017-11-19T10:01:03.136Z,4.77
2017-11-19T10:02:13.392Z,4.74
2017-11-19T10:03:22.988Z,4.67
2017-11-19T10:04:33.304Z,4.67
2017-11-19T10:05:43.462Z,4.62
2017-11-19T10:06:53.692Z,4.65
2017-11-19T10:08:03.986Z,4.62
2017-11-19T10:09:14.197Z,4.49
2017-11-19T10:10:24.401Z,4.47
2017-11-19T10:11:34.396Z,4.6
2017-11-19T10:12:44.591Z,4.55
2017-11-19T10:13:54.855Z,4.7
2017-11-19T10:15:05.118Z,4.68
2017-11-19T10:16:15.352Z,4.77
2017-11-19T10:17:25.322Z,4.7
2017-11-19T10:18:35.551Z,4.81
2017-11-19T10:19:45.437Z,4.8
2017-11-19T10:20:55.409Z,4.88
2017-11-19T10:22:05.390Z,4.8
2017-11-19T10:23:15.626Z,4.9
2017-11-19T10:24:25.965Z,4.99
2017-11-19T10:25:36.203Z,4.99
2017-11-19T10:26:45.647Z,5.06
2017-11-19T10:27:55.515Z,5
2017-11-19T10:29:05.887Z,5.07
2017-11-19T10:30:15.853Z,5.28
2017-11-19T10:31:26.388Z,5.5
2017-11-19T10:32:36.658Z,5.67
2017-11-19T10:33:46.388Z,5.84
2017-11-19T10:34:56.605Z,5.84
2017-11-19T10:36:06.603Z,5.72
2017-11-19T10:37:16.898Z,5.71
2017-11-19T10:38:26.794Z,5.58
2017-11-19T10:39:36.774Z,5.43
2017-11-19T10:40:47.075Z,5.31
2017-11-19T10:41:57.050Z,5.29
2017-11-19T10:43:07.384Z,5.29
2017-11-19T10:44:17.345Z,5.31
2017-11-19T10:45:27.571Z,5.25
2017-11-19T10:46:37.804Z,5.44
2017-11-19T10:47:48.065Z,5.75
2017-11-19T10:48:58.022Z,5.91
2017-11-19T10:50:07.989Z,6.05
2017-11-19T10:51:18.280Z,5.96
2017-11-19T10:52:28.499Z,5.94
2017-11-19T10:53:38.632Z,5.84
2017-11-19T10:54:48.903Z,5.83
2017-11-19T10:55:59.163Z,5.72
2017-11-19T10:57:09.213Z,5.54
2017-11-19T10:58:19.491Z,5.53
2017-11-19T10:59:29.750Z,5.44
2017-11-19T11:00:39.981Z,5.46
2017-11-19T11:01:49.945Z,5.32
2017-11-19T11:03:00.311Z,5.28
2017-11-19T11:04:10.255Z,5.22
2017-11-19T11:05:20.499Z,5.08
2017-11-19T11:06:30.748Z,5.03
2017-11-19T11:07:40.973Z,4.95
2017-11-19T11:08:51.215Z,4.8
2017-11-19T11:10:01.594Z,4.75
2017-11-19T11:11:11.924Z,4.7
2017-11-19T11:12:22.234Z,4.53
2017-11-19T11:13:32.456Z,4.53
2017-11-19T11:14:42.686Z,4.41
2017-11-19T11:15:52.572Z,4.43
2017-11-19T11:17:03.036Z,4.4
2017-11-19T11:18:13.179Z,4.41
2017-11-19T11:19:23.422Z,4.43
2017-11-19T11:20:33.419Z,4.46
2017-11-19T11:21:43.719Z,4.43
2017-11-19T11:22:54.104Z,4.43
2017-11-19T11:24:04.070Z,4.5
2017-11-19T11:25:14.316Z,4.46
2017-11-19T11:26:24.577Z,4.52
2017-11-19T11:27:34.878Z,4.5
2017-11-19T11:28:45.147Z,4.7
2017-11-19T11:29:55.382Z,4.83
2017-11-19T11:31:05.696Z,5.14
2017-11-19T11:32:15.985Z,5.43
2017-11-19T11:33:26.647Z,5.8
2017-11-19T11:34:36.928Z,6.11
2017-11-19T11:35:46.613Z,6.59
2017-11-19T11:36:56.947Z,6.87
2017-11-19T11:38:07.270Z,7.2
2017-11-19T11:39:17.549Z,7.49
2017-11-19T11:40:27.811Z,7.8
2017-11-19T11:41:38.044Z,7.99
2017-11-19T11:42:48.368Z,7.95
2017-11-19T11:43:58.639Z,7.8
2017-11-19T11:45:08.557Z,7.52
2017-11-19T11:46:19.083Z,7.26
2017-11-19T11:47:29.120Z,7.15
2017-11-19T11:48:40.059Z,7.17
2017-11-19T11:49:50.553Z,7.31
2017-11-19T11:51:00.895Z,7.44
2017-11-19T11:52:11.142Z,7.69
2017-11-19T11:53:21.414Z,7.8
2017-11-19T11:54:31.672Z,7.98
2017-11-19T11:55:41.720Z,7.88
2017-11-19T11:56:51.734Z,7.73
2017-11-19T11:58:01.975Z,7.37
2017-11-19T11:59:12.064Z,7.15
2017-11-19T12:00:22.141Z,6.93
2017-11-19T12:01:32.454Z,6.66
2017-11-19T12:02:42.711Z,6.44
2017-11-19T12:03:53.952Z,6.19
2017-11-19T12:05:04.227Z,6.05
2017-11-19T12:06:13.953Z,5.75
2017-11-19T12:07:24.010Z,5.74
2017-11-19T12:08:34.243Z,5.86
2017-11-19T12:09:44.481Z,5.86
2017-11-19T12:10:54.314Z,5.88
2017-11-19T12:12:04.465Z,5.77
2017-11-19T12:13:14.785Z,5.9
2017-11-19T12:14:25.068Z,5.9
2017-11-19T12:15:35.321Z,5.9
2017-11-19T12:16:45.331Z,5.9
2017-11-19T12:17:55.264Z,5.82
2017-11-19T12:19:05.805Z,5.86
2017-11-19T12:20:16.069Z,5.83
2017-11-19T12:21:26.363Z,5.69
2017-11-19T12:22:36.431Z,5.69
2017-11-19T12:23:46.688Z,5.74
2017-11-19T12:24:56.416Z,5.69
2017-11-19T12:26:06.660Z,5.8
2017-11-19T12:27:16.962Z,5.83
2017-11-19T12:28:27.207Z,5.8
2017-11-19T12:29:37.682Z,5.67
2017-11-19T12:30:47.919Z,5.65
2017-11-19T12:31:58.211Z,5.64
2017-11-19T12:33:08.457Z,5.54
2017-11-19T12:34:18.430Z,5.56
2017-11-19T12:35:28.422Z,5.46
2017-11-19T12:36:38.675Z,5.43
2017-11-19T12:37:48.542Z,5.32
2017-11-19T12:38:59.058Z,5.28
2017-11-19T12:40:09.368Z,5.21
2017-11-19T12:41:19.662Z,5.21
2017-11-19T12:42:29.897Z,5.26
2017-11-19T12:43:40.134Z,5.21
2017-11-19T12:44:50.670Z,5.29
2017-11-19T12:46:01.285Z,5.22
2017-11-19T12:47:10.896Z,5.25
2017-11-19T12:48:21.383Z,5.28
2017-11-19T12:49:31.622Z,5.26
2017-11-19T12:50:41.690Z,5.21
2017-11-19T12:51:51.978Z,5.28
2017-11-19T12:53:02.232Z,5.24
2017-11-19T12:54:12.403Z,5.08
2017-11-19T12:55:22.704Z,5
2017-11-19T12:56:34.057Z,4.9
2017-11-19T12:57:46.368Z,4.85
2017-11-19T12:58:58.152Z,4.86
2017-11-19T13:00:09.931Z,4.89
2017-11-19T13:01:21.014Z,4.86
2017-11-19T13:02:33.306Z,4.85
2017-11-19T13:03:49.005Z,4.68
2017-11-19T13:05:05.862Z,4.77
2017-11-19T13:06:18.068Z,4.74
2017-11-19T13:07:30.726Z,4.62
2017-11-19T13:08:44.627Z,4.63
2017-11-19T13:09:56.347Z,4.7
2017-11-19T13:11:08.159Z,4.67
2017-11-19T13:12:19.536Z,4.57
2017-11-19T13:13:31.466Z,4.68
2017-11-19T13:14:43.189Z,4.67
2017-11-19T13:15:55.493Z,4.57
2017-11-19T13:17:07.998Z,4.62
2017-11-19T13:18:19.454Z,4.65
2017-11-19T13:19:34.060Z,4.77
2017-11-19T13:20:46.115Z,4.71
2017-11-19T13:21:57.468Z,4.73
2017-11-19T13:23:09.654Z,4.8
2017-11-19T13:24:22.209Z,4.81
2017-11-19T13:25:35.580Z,4.73
2017-11-19T13:26:47.855Z,4.73
2017-11-19T13:28:03.703Z,4.83
2017-11-19T13:29:21.223Z,4.81
2017-11-19T13:30:32.852Z,4.86
2017-11-19T13:31:46.043Z,4.83
2017-11-19T13:32:57.491Z,4.8
2017-11-19T13:34:07.822Z,4.85
2017-11-19T13:35:18.113Z,4.88
2017-11-19T13:36:28.472Z,4.83
2017-11-19T13:37:38.756Z,4.73
2017-11-19T13:38:49.257Z,4.73
2017-11-19T13:39:59.563Z,4.86
2017-11-19T13:41:09.867Z,4.85
2017-11-19T13:42:19.884Z,4.8
2017-11-19T13:43:30.110Z,4.83
2017-11-19T13:44:40.365Z,4.81
2017-11-19T13:45:50.612Z,4.81
2017-11-19T13:47:00.633Z,4.98
2017-11-19T13:48:10.511Z,4.88
2017-11-19T13:49:20.523Z,4.9
2017-11-19T13:50:30.649Z,4.93
2017-11-19T13:51:41.008Z,4.93
2017-11-19T13:52:50.746Z,4.93
2017-11-19T13:54:01.076Z,4.95
2017-11-19T13:55:11.308Z,4.95
2017-11-19T13:56:21.812Z,4.99
2017-11-19T13:57:32.087Z,4.92
2017-11-19T13:58:41.804Z,4.96
2017-11-19T13:59:51.801Z,4.92
2017-11-19T14:01:02.209Z,4.95
2017-11-19T14:02:12.477Z,4.98
2017-11-19T14:03:22.527Z,4.8
2017-11-19T14:04:32.786Z,4.83
2017-11-19T14:05:42.889Z,4.88
2017-11-19T14:06:52.909Z,4.81
2017-11-19T14:08:03.226Z,4.73
2017-11-19T14:09:14.129Z,4.85
2017-11-19T14:10:24.208Z,4.7
2017-11-19T14:11:34.623Z,4.73
2017-11-19T14:12:44.946Z,4.68
2017-11-19T14:13:54.930Z,4.74
2017-11-19T14:15:05.496Z,4.7
2017-11-19T14:16:15.776Z,4.73
2017-11-19T14:17:25.796Z,4.78
2017-11-19T14:18:36.091Z,4.78
2017-11-19T14:19:46.087Z,4.8
2017-11-19T14:20:56.405Z,4.81
2017-11-19T14:22:06.605Z,4.81
2017-11-19T14:23:16.916Z,4.8
2017-11-19T14:24:27.301Z,4.89
2017-11-19T14:25:37.944Z,4.85
2017-11-19T14:26:48.450Z,4.81
2017-11-19T14:27:58.713Z,4.93
2017-11-19T14:29:09.022Z,4.92
2017-11-19T14:30:19.846Z,4.96
2017-11-19T14:31:30.215Z,4.9
2017-11-19T14:32:40.463Z,4.92
2017-11-19T14:33:50.461Z,4.81
2017-11-19T14:35:00.330Z,4.93
2017-11-19T14:36:10.607Z,4.85
2017-11-19T14:37:21.151Z,4.83
2017-11-19T14:38:31.425Z,4.8
2017-11-19T14:39:41.656Z,4.77
2017-11-19T14:40:52.098Z,4.83
2017-11-19T14:42:02.352Z,4.83
2017-11-19T14:43:12.759Z,4.85
2017-11-19T14:44:23.306Z,4.85
2017-11-19T14:45:33.728Z,4.85
2017-11-19T14:46:43.088Z,4.9
2017-11-19T14:47:53.363Z,4.85
2017-11-19T14:49:03.334Z,4.95
2017-11-19T14:50:12.937Z,4.85
2017-11-19T14:51:23.244Z,4.81
2017-11-19T14:52:33.723Z,4.77
2017-11-19T14:53:43.815Z,4.77
2017-11-19T14:54:54.100Z,4.83
2017-11-19T14:56:04.382Z,4.83
2017-11-19T14:57:14.664Z,4.75
2017-11-19T14:58:24.947Z,4.75
2017-11-19T14:59:35.232Z,4.77
2017-11-19T15:00:45.256Z,4.73
2017-11-19T15:01:55.411Z,4.7
2017-11-19T15:03:05.291Z,4.7
2017-11-19T15:04:15.509Z,4.71
2017-11-19T15:05:25.999Z,4.7
2017-11-19T15:06:35.990Z,4.67
2017-11-19T15:07:46.447Z,4.67
2017-11-19T15:08:56.522Z,4.67
2017-11-19T15:10:06.974Z,4.59
2017-11-19T15:11:16.971Z,4.55
2017-11-19T15:12:27.331Z,4.56
2017-11-19T15:13:37.914Z,4.55
2017-11-19T15:14:48.260Z,4.49
2017-11-19T15:15:58.046Z,4.46
2017-11-19T15:17:08.057Z,4.4
2017-11-19T15:18:18.428Z,4.46
2017-11-19T15:19:28.838Z,4.46
2017-11-19T15:20:38.917Z,4.41
2017-11-19T15:21:48.840Z,4.37
2017-11-19T15:22:58.842Z,4.37
2017-11-19T15:24:09.033Z,4.41
2017-11-19T15:25:19.406Z,4.47
2017-11-19T15:26:29.661Z,4.46
2017-11-19T15:27:40.001Z,4.4
2017-11-19T15:28:50.317Z,4.4
2017-11-19T15:30:00.807Z,4.38
2017-11-19T15:31:11.164Z,4.46
2017-11-19T15:32:21.138Z,4.4
2017-11-19T15:33:31.509Z,4.41
2017-11-19T15:34:41.808Z,4.43
2017-11-19T15:35:52.074Z,4.4
2017-11-19T15:37:02.593Z,4.46
2017-11-19T15:38:13.309Z,4.43
2017-11-19T15:39:23.315Z,4.4
2017-11-19T15:40:33.836Z,4.43